Terminal Aerodrome Forecast
Issued by NWS Grand Forks, ND

Home | Current Version | Previous Version | Graphics & Text | Print | Product List | Glossary On
Versions: 1 2 3 4 5 6 7 8 9 10 11 12 13 14
000
FTUS43 KFGF 271100
TAFGFK
TAF
KGFK 271133Z 2712/2812 18005KT P6SM SCT250
     FM271800 17013KT P6SM BKN100
     FM272200 16014KT P6SM OVC050=

USA.gov is the U.S. government's official web portal to all federal, state and local government web resources and services.